Time;durP1;ratioP1;P1;durP2;ratioP2;P2;SDS_P1;SDS_P2;PMS_P1;PMS_P2;Temp;Humidity;BMP_temperature;BMP_pressure;BME280_temperature;BME280_humidity;BME280_pressure;Samples;Min_cycle;Max_cycle;Signal;HPM_P1;HPM_P2
2023/05/17 00:00:05;;;;;;;1999.90;999.90;;;8.00;73.00;;;;;;5032847;28;20048;-87
2023/05/17 00:02:31;;;;;;;1999.90;999.90;;;7.90;73.90;;;;;;5026993;28;20041;-88
2023/05/17 00:04:57;;;;;;;1999.90;999.90;;;7.80;73.30;;;;;;5036026;28;20034;-86
2023/05/17 00:07:22;;;;;;;1999.90;999.90;;;7.90;72.80;;;;;;5026743;28;20042;-88
2023/05/17 00:09:53;;;;;;;1999.90;999.90;;;7.80;73.70;;;;;;5030070;28;20395;-89
2023/05/17 00:12:19;;;;;;;1999.90;999.90;;;7.80;72.90;;;;;;5016583;28;20425;-88
2023/05/17 00:14:45;;;;;;;1999.90;999.90;;;7.80;74.20;;;;;;5031885;28;20022;-88
2023/05/17 00:17:10;;;;;;;1999.90;999.90;;;7.70;73.90;;;;;;5015509;28;20037;-88
2023/05/17 00:19:36;;;;;;;1999.90;999.90;;;7.60;73.60;;;;;;5039624;28;20491;-88
2023/05/17 00:22:02;;;;;;;1999.90;999.90;;;7.70;74.00;;;;;;5029213;28;20041;-87
2023/05/17 00:24:28;;;;;;;1999.90;999.90;;;7.70;73.80;;;;;;5036603;28;20076;-88
2023/05/17 00:26:54;;;;;;;1999.90;999.90;;;7.70;73.30;;;;;;5029692;28;20053;-86
2023/05/17 00:29:20;;;;;;;1999.90;999.90;;;7.70;73.00;;;;;;5036071;28;20033;-86
2023/05/17 00:31:51;;;;;;;1999.90;999.90;;;7.80;72.60;;;;;;5035459;28;20399;-87
2023/05/17 00:34:17;;;;;;;1999.90;999.90;;;7.80;72.60;;;;;;5020201;28;20025;-90
2023/05/17 00:36:43;;;;;;;1999.90;999.90;;;7.70;73.40;;;;;;5026544;28;20033;-88
2023/05/17 00:39:08;;;;;;;1999.90;999.90;;;7.70;72.40;;;;;;5035861;28;20060;-87
2023/05/17 00:41:34;;;;;;;1999.90;999.90;;;7.70;72.60;;;;;;5025184;28;20787;-88
2023/05/17 00:44:00;;;;;;;1999.90;999.90;;;7.70;73.50;;;;;;5035342;28;20041;-88
2023/05/17 00:46:26;;;;;;;1999.90;999.90;;;7.60;72.70;;;;;;5029543;28;20038;-88
2023/05/17 00:48:52;;;;;;;1999.90;999.90;;;7.60;73.50;;;;;;5032690;28;20041;-89
2023/05/17 00:51:19;;;;;;;1999.90;999.90;;;7.60;72.50;;;;;;5031155;28;20036;-89
2023/05/17 00:53:46;;;;;;;1999.90;999.90;;;7.50;73.70;;;;;;5028912;28;20033;-89
2023/05/17 00:56:12;;;;;;;1999.90;999.90;;;7.40;74.60;;;;;;5032250;28;20029;-88
2023/05/17 00:58:39;;;;;;;1999.90;999.90;;;7.40;74.00;;;;;;5026356;28;20053;-88
2023/05/17 01:01:05;;;;;;;1999.90;999.90;;;7.40;75.80;;;;;;5040767;28;20083;-88
2023/05/17 01:03:31;;;;;;;1999.90;999.90;;;7.40;75.70;;;;;;5031857;28;20030;-87
2023/05/17 01:05:57;;;;;;;1999.90;999.90;;;7.40;74.90;;;;;;5011005;28;20049;-87
2023/05/17 01:08:23;;;;;;;1999.90;999.90;;;7.40;75.60;;;;;;5016042;28;20069;-87
2023/05/17 01:11:11;;;;;;;1999.90;999.90;;;7.30;75.60;;;;;;5037174;28;20400;-90
2023/05/17 01:13:44;;;;;;;1999.90;999.90;;;7.30;75.50;;;;;;5025932;28;20033;-87
2023/05/17 01:16:17;;;;;;;1999.90;999.90;;;7.30;75.60;;;;;;5027887;28;20112;-89
2023/05/17 01:18:54;;;;;;;1999.90;999.90;;;7.30;75.20;;;;;;5038092;28;20499;-88
2023/05/17 01:21:35;;;;;;;1999.90;999.90;;;7.10;75.90;;;;;;5027703;28;20029;-87
2023/05/17 01:24:07;;;;;;;1999.90;999.90;;;7.10;77.10;;;;;;5051027;28;20029;-87
2023/05/17 01:26:36;;;;;;;1999.90;999.90;;;7.20;76.60;;;;;;5032349;28;20128;-88
2023/05/17 01:29:04;;;;;;;1999.90;999.90;;;7.20;75.50;;;;;;5031516;28;20033;-88
2023/05/17 01:31:30;;;;;;;1999.90;999.90;;;7.20;77.40;;;;;;5024382;28;20029;-87
2023/05/17 01:33:57;;;;;;;1999.90;999.90;;;7.10;77.80;;;;;;5034798;28;20042;-88
2023/05/17 01:36:25;;;;;;;1999.90;999.90;;;7.20;76.30;;;;;;5024672;28;20042;-86
2023/05/17 01:38:51;;;;;;;1999.90;999.90;;;7.10;76.10;;;;;;5031581;28;20034;-87
2023/05/17 01:41:22;;;;;;;1999.90;999.90;;;7.10;75.90;;;;;;5027589;28;20040;-87
2023/05/17 01:44:10;;;;;;;1999.90;999.90;;;7.00;76.10;;;;;;5033589;28;20108;-89
2023/05/17 01:46:40;;;;;;;1999.90;999.90;;;7.00;76.60;;;;;;5029148;28;20041;-88
2023/05/17 01:49:21;;;;;;;1999.90;999.90;;;7.10;76.80;;;;;;5029372;28;20041;-90
2023/05/17 01:51:52;;;;;;;1999.90;999.90;;;7.00;76.20;;;;;;5025717;28;20056;-87
2023/05/17 01:54:22;;;;;;;1999.90;999.90;;;7.10;75.40;;;;;;5028671;28;20025;-89
2023/05/17 01:56:56;;;;;;;1999.90;999.90;;;7.10;75.90;;;;;;5032043;28;20037;-88
2023/05/17 01:59:24;;;;;;;1999.90;999.90;;;7.10;75.80;;;;;;5034747;28;20038;-86
2023/05/17 02:02:06;;;;;;;1999.90;999.90;;;7.10;75.00;;;;;;5028380;28;20026;-88
2023/05/17 02:04:33;;;;;;;1999.90;999.90;;;7.10;77.60;;;;;;5029790;28;20034;-88
2023/05/17 02:06:59;;;;;;;1999.90;999.90;;;7.20;76.00;;;;;;5033993;28;20029;-89
2023/05/17 02:09:25;;;;;;;1999.90;999.90;;;7.20;75.40;;;;;;5033316;28;20029;-87
2023/05/17 02:11:51;;;;;;;1999.90;999.90;;;7.10;76.60;;;;;;5016264;28;20056;-89
2023/05/17 02:14:17;;;;;;;1999.90;999.90;;;7.10;75.50;;;;;;5032997;28;20036;-88
2023/05/17 02:16:43;;;;;;;1999.90;999.90;;;7.20;75.20;;;;;;5026401;28;20029;-89
2023/05/17 02:19:08;;;;;;;1999.90;999.90;;;7.20;74.80;;;;;;5029577;28;20550;-87
2023/05/17 02:21:34;;;;;;;1999.90;999.90;;;7.20;75.10;;;;;;5009522;28;20503;-87
2023/05/17 02:24:00;;;;;;;1999.90;999.90;;;7.10;75.80;;;;;;5029037;28;20030;-88
2023/05/17 02:26:26;;;;;;;1999.90;999.90;;;7.10;76.40;;;;;;5030367;28;20407;-89
2023/05/17 02:28:52;;;;;;;1999.90;999.90;;;7.00;77.00;;;;;;5027302;28;20042;-87
2023/05/17 02:31:18;;;;;;;1999.90;999.90;;;6.90;76.50;;;;;;5022042;28;20087;-88
2023/05/17 02:33:44;;;;;;;1999.90;999.90;;;6.90;77.10;;;;;;5029547;28;20495;-88
2023/05/17 02:36:10;;;;;;;1999.90;999.90;;;6.90;77.20;;;;;;5035358;28;20056;-87
2023/05/17 02:38:36;;;;;;;1999.90;999.90;;;7.00;76.70;;;;;;5030399;28;20061;-88
2023/05/17 02:41:02;;;;;;;1999.90;999.90;;;7.00;77.30;;;;;;5030062;28;20028;-88
2023/05/17 02:43:28;;;;;;;1999.90;999.90;;;7.00;77.30;;;;;;5032082;28;20407;-86
2023/05/17 02:45:53;;;;;;;1999.90;999.90;;;7.00;77.00;;;;;;5026233;28;20060;-88
2023/05/17 02:48:19;;;;;;;1999.90;999.90;;;7.00;77.70;;;;;;5023928;28;20061;-89
2023/05/17 02:50:45;;;;;;;1999.90;999.90;;;6.90;76.80;;;;;;5029365;28;20128;-89
2023/05/17 02:53:11;;;;;;;1999.90;999.90;;;7.00;76.70;;;;;;5026839;28;20030;-88
2023/05/17 02:55:37;;;;;;;1999.90;999.90;;;7.00;77.50;;;;;;5026488;28;20533;-89
2023/05/17 02:58:03;;;;;;;1999.90;999.90;;;7.00;77.20;;;;;;5023243;28;20034;-87
2023/05/17 03:00:29;;;;;;;1999.90;999.90;;;6.90;77.20;;;;;;5023363;28;20029;-88
2023/05/17 03:02:54;;;;;;;1999.90;999.90;;;6.90;78.00;;;;;;5032272;28;20045;-87
2023/05/17 03:05:20;;;;;;;1999.90;999.90;;;6.90;76.80;;;;;;5022935;28;20033;-89
2023/05/17 03:07:46;;;;;;;1999.90;999.90;;;6.70;77.30;;;;;;5031330;28;20034;-89
2023/05/17 03:10:11;;;;;;;1999.90;999.90;;;6.70;77.40;;;;;;5022534;28;20068;-86
2023/05/17 03:12:37;;;;;;;1999.90;999.90;;;6.60;78.20;;;;;;5031034;28;20517;-88
2023/05/17 03:15:03;;;;;;;1999.90;999.90;;;6.70;79.10;;;;;;5028352;28;20502;-87
2023/05/17 03:17:29;;;;;;;1999.90;999.90;;;6.70;77.70;;;;;;5017369;28;20025;-90
2023/05/17 03:19:55;;;;;;;1999.90;999.90;;;6.70;78.40;;;;;;5021764;28;20121;-89
2023/05/17 03:22:21;;;;;;;1999.90;999.90;;;6.80;77.10;;;;;;5032412;28;20128;-87
2023/05/17 03:24:46;;;;;;;1999.90;999.90;;;6.90;76.80;;;;;;5030259;28;20726;-88
2023/05/17 03:27:12;;;;;;;1999.90;999.90;;;6.80;77.00;;;;;;5029457;28;20055;-87
2023/05/17 03:29:38;;;;;;;1999.90;999.90;;;6.70;77.10;;;;;;5027203;28;20114;-85
2023/05/17 03:32:04;;;;;;;1999.90;999.90;;;6.80;76.80;;;;;;5034609;28;20091;-87
2023/05/17 03:34:30;;;;;;;1999.90;999.90;;;6.70;77.80;;;;;;5021980;28;20030;-88
2023/05/17 03:36:55;;;;;;;1999.90;999.90;;;6.70;77.10;;;;;;5036051;28;20037;-87
2023/05/17 03:39:21;;;;;;;1999.90;999.90;;;6.80;76.60;;;;;;5027029;28;20044;-89
2023/05/17 03:41:47;;;;;;;1999.90;999.90;;;6.80;76.40;;;;;;5033155;28;20029;-89
2023/05/17 03:44:12;;;;;;;1999.90;999.90;;;6.80;76.60;;;;;;5030116;28;20029;-88
2023/05/17 03:46:38;;;;;;;1999.90;999.90;;;6.80;76.20;;;;;;5033807;28;20037;-89
2023/05/17 03:49:04;;;;;;;1999.90;999.90;;;6.80;75.80;;;;;;5033914;28;20118;-87
2023/05/17 03:51:29;;;;;;;1999.90;999.90;;;6.80;75.30;;;;;;5034073;28;20041;-88
2023/05/17 03:53:59;;;;;;;1999.90;999.90;;;6.80;75.50;;;;;;5034919;28;20034;-88
2023/05/17 03:56:26;;;;;;;1999.90;999.90;;;6.80;76.60;;;;;;5036955;28;20021;-89
2023/05/17 03:58:51;;;;;;;1999.90;999.90;;;6.80;75.80;;;;;;5030772;28;20112;-88
2023/05/17 04:01:19;;;;;;;1999.90;999.90;;;6.70;77.60;;;;;;5033700;28;20120;-88
2023/05/17 04:03:45;;;;;;;1999.90;999.90;;;6.70;76.90;;;;;;5031228;28;20040;-87
2023/05/17 04:06:13;;;;;;;1999.90;999.90;;;6.80;77.20;;;;;;5036974;28;20021;-89
2023/05/17 04:08:42;;;;;;;1999.90;999.90;;;6.80;77.70;;;;;;5038145;28;20067;-87
2023/05/17 04:11:12;;;;;;;1999.90;999.90;;;6.80;76.40;;;;;;5035167;28;20503;-87
2023/05/17 04:13:41;;;;;;;1999.90;999.90;;;6.80;76.90;;;;;;5029081;28;20052;-89
2023/05/17 04:16:08;;;;;;;1999.90;999.90;;;6.90;75.90;;;;;;5022880;28;20056;-88
2023/05/17 04:18:35;;;;;;;1999.90;999.90;;;6.80;76.20;;;;;;5033193;28;20039;-88
2023/05/17 04:21:02;;;;;;;1999.90;999.90;;;6.80;77.20;;;;;;5031588;28;20506;-87
2023/05/17 04:23:28;;;;;;;1999.90;999.90;;;6.70;76.30;;;;;;5032224;28;20037;-88
2023/05/17 04:25:55;;;;;;;1999.90;999.90;;;6.70;76.10;;;;;;5034089;28;20394;-87
2023/05/17 04:28:21;;;;;;;1999.90;999.90;;;6.80;75.90;;;;;;5030113;28;20126;-87
2023/05/17 04:30:47;;;;;;;1999.90;999.90;;;6.80;75.80;;;;;;5029305;28;20104;-85
2023/05/17 04:33:13;;;;;;;1999.90;999.90;;;6.80;76.30;;;;;;5033335;28;20061;-86
2023/05/17 04:35:41;;;;;;;1999.90;999.90;;;6.70;76.90;;;;;;5031323;28;20076;-88
2023/05/17 04:38:13;;;;;;;1999.90;999.90;;;6.70;76.40;;;;;;5024633;28;20022;-88
2023/05/17 04:40:38;;;;;;;1999.90;999.90;;;6.80;76.60;;;;;;5026220;28;20057;-91
2023/05/17 04:43:04;;;;;;;1999.90;999.90;;;6.70;77.70;;;;;;5033375;28;20067;-87
2023/05/17 04:45:32;;;;;;;1999.90;999.90;;;6.70;77.50;;;;;;5030196;28;20060;-87
2023/05/17 04:48:00;;;;;;;1999.90;999.90;;;6.70;76.90;;;;;;5039083;28;20120;-87
2023/05/17 04:50:26;;;;;;;1999.90;999.90;;;6.70;78.50;;;;;;5033117;28;20029;-88
2023/05/17 04:52:51;;;;;;;1999.90;999.90;;;6.70;76.30;;;;;;5030896;28;20091;-88
2023/05/17 04:55:17;;;;;;;1999.90;999.90;;;6.80;77.30;;;;;;5027746;28;20674;-88
2023/05/17 04:57:43;;;;;;;1999.90;999.90;;;6.80;75.70;;;;;;5026561;28;20094;-87
2023/05/17 05:00:10;;;;;;;1999.90;999.90;;;6.90;76.80;;;;;;5027155;28;20037;-88
2023/05/17 05:02:37;;;;;;;1999.90;999.90;;;6.90;77.20;;;;;;5034510;28;20034;-87
2023/05/17 05:05:05;;;;;;;1999.90;999.90;;;6.90;77.70;;;;;;5038204;28;20064;-89
2023/05/17 05:07:31;;;;;;;1999.90;999.90;;;6.90;77.30;;;;;;5034517;28;20029;-89
2023/05/17 05:09:56;;;;;;;1999.90;999.90;;;7.00;76.60;;;;;;5030340;28;20045;-89
2023/05/17 05:12:23;;;;;;;1999.90;999.90;;;7.00;77.40;;;;;;5032822;28;20033;-88
2023/05/17 05:14:50;;;;;;;1999.90;999.90;;;7.00;77.10;;;;;;5020158;28;20017;-90
2023/05/17 05:17:16;;;;;;;1999.90;999.90;;;7.10;77.00;;;;;;5035066;28;20025;-90
2023/05/17 05:19:42;;;;;;;1999.90;999.90;;;7.20;76.50;;;;;;5030497;28;20088;-87
2023/05/17 05:22:08;;;;;;;1999.90;999.90;;;7.30;77.80;;;;;;5030823;28;20037;-89
2023/05/17 05:24:36;;;;;;;1999.90;999.90;;;7.40;75.10;;;;;;5043423;28;20072;-86
2023/05/17 05:27:02;;;;;;;1999.90;999.90;;;7.30;75.60;;;;;;5037458;28;20096;-86
2023/05/17 05:29:37;;;;;;;1999.90;999.90;;;7.50;76.10;;;;;;5034748;28;20072;-90
2023/05/17 05:32:03;;;;;;;1999.90;999.90;;;7.50;75.70;;;;;;5027770;28;20021;-89
2023/05/17 05:34:30;;;;;;;1999.90;999.90;;;7.50;76.30;;;;;;5032055;28;20356;-89
2023/05/17 05:36:56;;;;;;;1999.90;999.90;;;7.70;75.00;;;;;;5032869;28;20097;-91
2023/05/17 05:39:23;;;;;;;1999.90;999.90;;;7.80;76.00;;;;;;5031374;28;20124;-89
2023/05/17 05:41:50;;;;;;;1999.90;999.90;;;7.60;75.40;;;;;;5015524;28;20030;-89
2023/05/17 05:44:22;;;;;;;1999.90;999.90;;;7.90;74.60;;;;;;5027418;28;20060;-89
2023/05/17 05:46:48;;;;;;;1999.90;999.90;;;8.10;73.90;;;;;;5030295;28;20037;-89
2023/05/17 05:49:14;;;;;;;1999.90;999.90;;;8.00;73.30;;;;;;5030437;28;20235;-87
2023/05/17 05:51:39;;;;;;;1999.90;999.90;;;8.10;73.80;;;;;;5026714;28;20714;-88
2023/05/17 05:54:05;;;;;;;1999.90;999.90;;;8.10;73.80;;;;;;5029569;28;20041;-89
2023/05/17 05:56:35;;;;;;;1999.90;999.90;;;8.10;74.60;;;;;;5028458;28;20037;-90
2023/05/17 05:59:01;;;;;;;1999.90;999.90;;;8.10;73.20;;;;;;5025730;28;20068;-89
2023/05/17 06:01:27;;;;;;;1999.90;999.90;;;8.10;72.90;;;;;;5013937;28;20033;-88
2023/05/17 06:03:53;;;;;;;1999.90;999.90;;;8.10;72.60;;;;;;5024536;28;20037;-88
2023/05/17 06:06:19;;;;;;;1999.90;999.90;;;8.00;73.00;;;;;;5012782;28;20025;-91
2023/05/17 06:08:46;;;;;;;1999.90;999.90;;;8.20;72.90;;;;;;5023514;28;20040;-88
2023/05/17 06:11:15;;;;;;;1999.90;999.90;;;8.00;72.00;;;;;;5032312;28;20525;-88
2023/05/17 06:13:41;;;;;;;1999.90;999.90;;;7.80;73.30;;;;;;5022897;28;20034;-90
2023/05/17 06:16:06;;;;;;;1999.90;999.90;;;7.80;73.90;;;;;;5028192;28;20387;-90
2023/05/17 06:18:32;;;;;;;1999.90;999.90;;;8.20;72.50;;;;;;5024459;28;20038;-90
2023/05/17 06:20:58;;;;;;;1999.90;999.90;;;8.10;73.90;;;;;;5024197;28;20428;-89
2023/05/17 06:23:24;;;;;;;1999.90;999.90;;;8.00;72.90;;;;;;5030745;28;20068;-89
2023/05/17 06:25:51;;;;;;;1999.90;999.90;;;8.00;72.20;;;;;;5028629;28;20022;-89
2023/05/17 06:28:17;;;;;;;1999.90;999.90;;;7.80;72.60;;;;;;5030197;28;20041;-90
2023/05/17 06:30:42;;;;;;;1999.90;999.90;;;7.80;73.20;;;;;;5033473;28;20034;-90
2023/05/17 06:33:08;;;;;;;1999.90;999.90;;;8.00;73.90;;;;;;5026214;28;20112;-89
2023/05/17 06:35:35;;;;;;;1999.90;999.90;;;8.10;72.90;;;;;;5033264;28;20025;-88
2023/05/17 06:38:00;;;;;;;1999.90;999.90;;;8.10;72.80;;;;;;5028399;28;20026;-89
2023/05/17 06:40:26;;;;;;;1999.90;999.90;;;8.10;72.50;;;;;;5036818;28;20033;-89
2023/05/17 06:42:52;;;;;;;1999.90;999.90;;;8.00;73.30;;;;;;5026499;28;20087;-89
2023/05/17 06:45:20;;;;;;;1999.90;999.90;;;8.20;73.40;;;;;;5030928;28;20396;-88
2023/05/17 06:47:46;;;;;;;1999.90;999.90;;;8.30;73.20;;;;;;5031055;28;20785;-90
2023/05/17 06:50:12;;;;;;;1999.90;999.90;;;8.40;73.40;;;;;;5031126;28;20071;-89
2023/05/17 06:52:37;;;;;;;1999.90;999.90;;;8.50;73.00;;;;;;5026388;28;20057;-89
2023/05/17 06:55:03;;;;;;;1999.90;999.90;;;8.40;71.70;;;;;;5030074;28;20502;-89
2023/05/17 06:57:29;;;;;;;1999.90;999.90;;;8.40;71.60;;;;;;5025834;28;20167;-89
2023/05/17 06:59:55;;;;;;;1999.90;999.90;;;8.40;71.80;;;;;;5028053;28;20109;-89
2023/05/17 07:02:21;;;;;;;1999.90;999.90;;;8.50;72.20;;;;;;5027628;28;20466;-90
2023/05/17 07:04:47;;;;;;;1999.90;999.90;;;8.60;70.70;;;;;;5027646;28;20045;-88
2023/05/17 07:07:13;;;;;;;1999.90;999.90;;;8.80;70.80;;;;;;5044911;28;20469;-87
2023/05/17 07:09:40;;;;;;;1999.90;999.90;;;8.70;71.20;;;;;;5027771;28;20030;-88
2023/05/17 07:12:06;;;;;;;1999.90;999.90;;;9.00;71.30;;;;;;5024647;28;20768;-89
2023/05/17 07:14:32;;;;;;;1999.90;999.90;;;8.90;71.50;;;;;;5030744;28;20025;-90
2023/05/17 07:16:58;;;;;;;1999.90;999.90;;;9.00;70.20;;;;;;5008956;28;20144;-89
2023/05/17 07:19:26;;;;;;;1999.90;999.90;;;8.90;70.00;;;;;;5030577;28;20037;-90
2023/05/17 07:21:52;;;;;;;1999.90;999.90;;;8.90;71.30;;;;;;5032080;28;20076;-89
2023/05/17 07:24:18;;;;;;;1999.90;999.90;;;9.10;69.90;;;;;;5031257;28;20481;-89
2023/05/17 07:26:44;;;;;;;1999.90;999.90;;;9.00;69.70;;;;;;5028287;28;20474;-89
2023/05/17 07:29:11;;;;;;;1999.90;999.90;;;8.90;68.60;;;;;;5034134;28;20034;-88
2023/05/17 07:31:37;;;;;;;1999.90;999.90;;;8.90;70.90;;;;;;5034538;28;20044;-90
2023/05/17 07:34:02;;;;;;;1999.90;999.90;;;8.90;70.90;;;;;;5025730;28;20038;-89
2023/05/17 07:36:29;;;;;;;1999.90;999.90;;;9.00;69.40;;;;;;5029285;28;20088;-90
2023/05/17 07:38:56;;;;;;;1999.90;999.90;;;8.90;70.80;;;;;;5029292;28;20037;-89
2023/05/17 07:41:22;;;;;;;1999.90;999.90;;;9.10;69.90;;;;;;5037170;28;20037;-88
2023/05/17 07:43:48;;;;;;;1999.90;999.90;;;9.30;68.70;;;;;;5016427;28;20036;-89
2023/05/17 07:46:14;;;;;;;1999.90;999.90;;;9.50;69.30;;;;;;5023644;28;20033;-88
2023/05/17 07:48:40;;;;;;;1999.90;999.90;;;9.70;70.70;;;;;;5012834;28;20033;-89
2023/05/17 07:51:05;;;;;;;1999.90;999.90;;;9.70;68.20;;;;;;5032064;28;20028;-89
2023/05/17 07:53:31;;;;;;;1999.90;999.90;;;9.70;68.20;;;;;;5033740;28;20029;-90
2023/05/17 07:55:57;;;;;;;1999.90;999.90;;;9.80;67.70;;;;;;5014076;28;20120;-88
2023/05/17 07:58:23;;;;;;;1999.90;999.90;;;9.90;68.50;;;;;;5039596;28;20028;-89
2023/05/17 08:00:51;;;;;;;1999.90;999.90;;;10.10;66.60;;;;;;5024946;28;20029;-90
2023/05/17 08:03:17;;;;;;;1999.90;999.90;;;10.00;67.60;;;;;;5036576;28;20028;-89
2023/05/17 08:05:43;;;;;;;1999.90;999.90;;;10.40;68.00;;;;;;5025311;28;20033;-89
2023/05/17 08:08:09;;;;;;;1999.90;999.90;;;10.50;67.00;;;;;;5029993;28;20033;-90
2023/05/17 08:10:36;;;;;;;1999.90;999.90;;;10.60;65.40;;;;;;5019015;28;20044;-88
2023/05/17 08:13:03;;;;;;;1999.90;999.90;;;10.40;65.70;;;;;;5027238;28;20025;-89
2023/05/17 08:15:29;;;;;;;1999.90;999.90;;;10.40;66.00;;;;;;5029329;28;20041;-89
2023/05/17 08:17:55;;;;;;;1999.90;999.90;;;10.50;66.50;;;;;;5031253;28;20112;-89
2023/05/17 08:20:20;;;;;;;1999.90;999.90;;;10.60;64.50;;;;;;5029517;28;20176;-88
2023/05/17 08:22:46;;;;;;;1999.90;999.90;;;10.90;64.20;;;;;;5033456;28;20048;-88
2023/05/17 08:25:12;;;;;;;1999.90;999.90;;;11.10;63.70;;;;;;5033085;28;20526;-87
2023/05/17 08:27:37;;;;;;;1999.90;999.90;;;11.10;63.30;;;;;;5033745;28;20048;-89
2023/05/17 08:30:04;;;;;;;1999.90;999.90;;;11.20;62.50;;;;;;5030507;28;20048;-89
2023/05/17 08:32:29;;;;;;;1999.90;999.90;;;11.30;62.10;;;;;;5027623;28;20048;-90
2023/05/17 08:34:56;;;;;;;1999.90;999.90;;;11.70;63.30;;;;;;5033562;28;20034;-89
2023/05/17 08:37:22;;;;;;;1999.90;999.90;;;11.70;62.40;;;;;;5030736;28;20075;-89
2023/05/17 08:39:48;;;;;;;1999.90;999.90;;;11.80;60.60;;;;;;5033345;28;20042;-89
2023/05/17 08:42:20;;;;;;;1999.90;999.90;;;11.90;60.10;;;;;;5033270;28;20033;-88
2023/05/17 08:44:46;;;;;;;1999.90;999.90;;;12.00;57.70;;;;;;5030818;28;20034;-90
2023/05/17 08:47:24;;;;;;;1999.90;999.90;;;11.70;58.30;;;;;;5032850;28;20403;-89
2023/05/17 08:49:51;;;;;;;1999.90;999.90;;;11.70;58.90;;;;;;5029189;28;20037;-89
2023/05/17 08:52:17;;;;;;;1999.90;999.90;;;11.80;57.80;;;;;;5030739;28;20033;-89
2023/05/17 08:54:42;;;;;;;1999.90;999.90;;;12.00;57.80;;;;;;5031270;28;20390;-89
2023/05/17 08:57:10;;;;;;;1999.90;999.90;;;12.10;57.20;;;;;;5030436;28;20034;-87
2023/05/17 08:59:37;;;;;;;1999.90;999.90;;;12.00;54.80;;;;;;5030233;28;20059;-89
2023/05/17 09:02:05;;;;;;;1999.90;999.90;;;11.90;55.30;;;;;;5033790;28;20040;-89
2023/05/17 09:04:30;;;;;;;1999.90;999.90;;;12.20;57.20;;;;;;5033898;28;20033;-89
2023/05/17 09:06:56;;;;;;;1999.90;999.90;;;12.30;56.70;;;;;;5023567;28;20037;-89
2023/05/17 09:09:22;;;;;;;1999.90;999.90;;;12.80;55.10;;;;;;5030225;28;20533;-90
2023/05/17 09:11:48;;;;;;;1999.90;999.90;;;12.80;53.50;;;;;;5031126;28;20028;-88
2023/05/17 09:14:18;;;;;;;1999.90;999.90;;;13.10;53.80;;;;;;5025600;28;20030;-90
2023/05/17 09:16:43;;;;;;;1999.90;999.90;;;13.60;53.60;;;;;;5028811;28;20554;-90
2023/05/17 09:19:15;;;;;;;1999.90;999.90;;;13.70;52.60;;;;;;5033692;28;20041;-89
2023/05/17 09:21:46;;;;;;;1999.90;999.90;;;13.60;51.10;;;;;;5030594;28;20388;-88
2023/05/17 09:24:11;;;;;;;;;;;13.50;52.70;;;;;;5033618;28;20029;-89
2023/05/17 09:26:39;;;;;;;1999.90;999.90;;;13.70;52.20;;;;;;5027889;28;19920;-89
2023/05/17 09:29:10;;;;;;;1999.90;999.90;;;14.10;51.10;;;;;;5027299;28;20049;-89
2023/05/17 09:31:37;;;;;;;1999.90;999.90;;;14.00;50.90;;;;;;5028781;28;20056;-89
2023/05/17 09:34:02;;;;;;;1999.90;999.90;;;13.10;50.60;;;;;;5031648;28;20103;-90
2023/05/17 09:36:28;;;;;;;1999.90;999.90;;;13.60;52.70;;;;;;5028990;28;20487;-89
2023/05/17 09:39:04;;;;;;;1999.90;999.90;;;14.40;51.20;;;;;;5021323;28;20039;-88
2023/05/17 09:41:45;;;;;;;1999.90;999.90;;;14.40;54.80;;;;;;5025317;28;20100;-88
2023/05/17 09:44:12;;;;;;;1999.90;999.90;;;14.80;50.10;;;;;;5024519;28;20036;-89
2023/05/17 09:46:46;;;;;;;1999.90;999.90;;;15.00;48.70;;;;;;5021030;28;20025;-89
2023/05/17 09:49:12;;;;;;;1999.90;999.90;;;14.30;48.20;;;;;;5023729;28;20113;-88
2023/05/17 09:51:41;;;;;;;1999.90;999.90;;;14.50;48.40;;;;;;5025820;28;20606;-90
2023/05/17 09:54:12;;;;;;;1999.90;999.90;;;15.10;48.40;;;;;;5015014;28;20737;-89
2023/05/17 09:56:38;;;;;;;1999.90;999.90;;;15.30;46.70;;;;;;5027028;28;20078;-89
2023/05/17 09:59:11;;;;;;;1999.90;999.90;;;15.30;43.50;;;;;;5023526;28;20045;-89
2023/05/17 10:01:40;;;;;;;1999.90;999.90;;;15.10;43.80;;;;;;5017891;28;20026;-89
2023/05/17 10:04:08;;;;;;;1999.90;999.90;;;14.80;47.80;;;;;;5025108;28;20067;-89
2023/05/17 10:06:40;;;;;;;1999.90;999.90;;;13.80;47.20;;;;;;5022281;28;20569;-89
2023/05/17 10:09:11;;;;;;;1999.90;999.90;;;14.70;48.20;;;;;;5021983;28;20036;-89
2023/05/17 10:11:39;;;;;;;1999.90;999.90;;;14.90;45.10;;;;;;5021708;28;20029;-88
2023/05/17 10:14:10;;;;;;;1999.90;999.90;;;14.30;47.10;;;;;;5023614;28;20025;-89
2023/05/17 10:16:37;;;;;;;1999.90;999.90;;;13.80;49.20;;;;;;5027256;28;20032;-89
2023/05/17 10:19:04;;;;;;;1999.90;999.90;;;13.70;47.30;;;;;;5029680;28;20047;-88
2023/05/17 10:21:31;;;;;;;1999.90;999.90;;;13.20;47.30;;;;;;5021988;28;20033;-89
2023/05/17 10:24:04;;;;;;;1999.90;999.90;;;14.10;47.60;;;;;;5028519;28;20087;-88
2023/05/17 10:26:30;;;;;;;1999.90;999.90;;;14.00;44.30;;;;;;5027543;28;20610;-89
2023/05/17 10:29:00;;;;;;;1999.90;999.90;;;14.10;47.70;;;;;;5027950;28;20073;-89
2023/05/17 10:31:33;;;;;;;1999.90;999.90;;;13.70;49.00;;;;;;5027938;28;20045;-89
2023/05/17 10:34:00;;;;;;;1999.90;999.90;;;13.70;47.80;;;;;;5028401;28;20117;-89
2023/05/17 10:36:27;;;;;;;1999.90;999.90;;;14.40;47.00;;;;;;5030292;28;20461;-89
2023/05/17 10:38:53;;;;;;;1999.90;999.90;;;14.20;46.90;;;;;;5031137;28;20557;-88
2023/05/17 10:41:22;;;;;;;1999.90;999.90;;;13.80;48.00;;;;;;5028606;28;20064;-89
2023/05/17 10:43:49;;;;;;;1999.90;999.90;;;14.00;49.20;;;;;;5029918;28;20680;-90
2023/05/17 10:46:20;;;;;;;1999.90;999.90;;;14.20;49.40;;;;;;5026852;28;20132;-89
2023/05/17 10:48:51;;;;;;;1999.90;999.90;;;14.70;46.20;;;;;;5029335;28;20025;-87
2023/05/17 10:51:23;;;;;;;1999.90;999.90;;;14.40;46.90;;;;;;5032405;28;20494;-84
2023/05/17 10:54:01;;;;;;;1999.90;999.90;;;14.90;46.40;;;;;;5024998;28;20614;-89
2023/05/17 10:56:30;;;;;;;1999.90;999.90;;;15.30;44.20;;;;;;5032814;28;20021;-90
2023/05/17 10:59:20;;;;;;;1999.90;999.90;;;16.10;45.30;;;;;;5029771;28;20042;-88
2023/05/17 11:02:06;;;;;;;1999.90;999.90;;;16.60;46.70;;;;;;5028881;28;20064;-84
2023/05/17 11:04:33;;;;;;;1999.90;999.90;;;15.90;42.20;;;;;;5027922;28;20041;-88
2023/05/17 11:07:24;;;;;;;1999.90;999.90;;;16.20;40.00;;;;;;5031515;28;20041;-89
2023/05/17 11:10:05;;;;;;;1999.90;999.90;;;16.40;41.30;;;;;;5029986;28;20111;-86
2023/05/17 11:12:31;;;;;;;;;;;16.80;40.80;;;;;;5028084;28;20033;-87
2023/05/17 11:14:57;;;;;;;1999.90;999.90;;;17.00;40.70;;;;;;5025221;28;20264;-85
2023/05/17 11:17:27;;;;;;;1999.90;999.90;;;16.50;42.00;;;;;;5031815;28;20082;-89
2023/05/17 11:20:10;;;;;;;1999.90;999.90;;;17.10;40.50;;;;;;5028576;28;20064;-88
2023/05/17 11:22:49;;;;;;;1999.90;999.90;;;17.30;38.40;;;;;;5029212;28;20042;-87
2023/05/17 11:25:15;;;;;;;1999.90;999.90;;;16.60;40.00;;;;;;5027620;28;20037;-85
2023/05/17 11:27:50;;;;;;;1999.90;999.90;;;16.80;40.60;;;;;;5034789;28;20042;-85
2023/05/17 11:30:27;;;;;;;1999.90;999.90;;;17.30;39.80;;;;;;5024499;28;20029;-81
2023/05/17 11:32:58;;;;;;;1999.90;999.90;;;17.40;37.60;;;;;;5025770;28;20029;-84
2023/05/17 11:35:30;;;;;;;1999.90;999.90;;;17.30;37.90;;;;;;5021300;28;20048;-85
2023/05/17 11:38:22;;;;;;;1999.90;999.90;;;18.00;39.70;;;;;;5028401;28;20519;-82
2023/05/17 11:40:53;;;;;;;1999.90;999.90;;;18.30;41.10;;;;;;5029548;28;20025;-88
2023/05/17 11:43:24;;;;;;;1999.90;999.90;;;18.00;36.60;;;;;;5031016;28;20398;-84
2023/05/17 11:45:51;;;;;;;1999.90;999.90;;;18.40;39.70;;;;;;5027577;28;20087;-84
2023/05/17 11:48:19;;;;;;;1999.90;999.90;;;18.30;39.30;;;;;;5024759;28;20159;-86
2023/05/17 11:50:47;;;;;;;1999.90;999.90;;;16.50;41.70;;;;;;5024745;28;20395;-86
2023/05/17 11:53:14;;;;;;;1999.90;999.90;;;16.50;40.60;;;;;;5022230;28;20411;-86
2023/05/17 11:55:49;;;;;;;1999.90;999.90;;;15.50;42.10;;;;;;5021976;28;20473;-89
2023/05/17 11:58:16;;;;;;;1999.90;999.90;;;15.40;43.90;;;;;;5028562;28;20419;-84
2023/05/17 12:00:42;;;;;;;1999.90;999.90;;;15.60;43.20;;;;;;5030267;28;20090;-88
2023/05/17 12:03:19;;;;;;;1999.90;999.90;;;15.20;42.80;;;;;;5028521;28;20037;-87
2023/05/17 12:05:47;;;;;;;1999.90;999.90;;;15.20;43.40;;;;;;5028201;28;20081;-87
2023/05/17 12:08:17;;;;;;;1999.90;999.90;;;15.60;40.70;;;;;;5026121;28;20476;-87